Time;durP1;ratioP1;P1;durP2;ratioP2;P2;SDS_P1;SDS_P2;PMS_P1;PMS_P2;Temp;Humidity;BMP_temperature;BMP_pressure;BME280_temperature;BME280_humidity;BME280_pressure;Samples;Min_cycle;Max_cycle;Signal;HPM_P1;HPM_P2
2022/10/11 00:00:11;;;;;;;17.93;5.63;;;;;6.20;101930.00;;;;10486211;28;20290;-77
2022/10/11 00:05:31;;;;;;;12.97;6.33;;;;;6.20;101935.00;;;;10514278;28;20216;-77
2022/10/11 00:10:59;;;;;;;15.43;5.60;;;;;6.20;101939.00;;;;10524179;27;20225;-77
2022/10/11 00:16:19;;;;;;;17.97;6.33;;;;;6.20;101938.00;;;;10505397;27;20221;-77
2022/10/11 00:21:39;;;;;;;12.70;6.13;;;;;6.20;101952.00;;;;10517794;28;20281;-77
2022/10/11 00:26:59;;;;;;;21.97;7.70;;;;;6.20;101950.00;;;;10503433;28;20200;-77
2022/10/11 00:32:18;;;;;;;20.20;7.00;;;;;6.20;101943.00;;;;10506966;28;20220;-77
2022/10/11 00:37:38;;;;;;;17.60;6.30;;;;;6.20;101950.00;;;;10513642;28;20202;-76
2022/10/11 00:42:58;;;;;;;20.93;6.30;;;;;6.20;101952.00;;;;10493916;28;20217;-77
2022/10/11 00:48:22;;;;;;;17.63;6.60;;;;;6.10;101963.00;;;;10481851;28;20201;-76
2022/10/11 00:53:42;;;;;;;15.93;6.30;;;;;6.00;101966.00;;;;10484041;28;20204;-77
2022/10/11 00:59:07;;;;;;;16.37;7.17;;;;;5.90;101964.00;;;;10507879;27;20657;-77
2022/10/11 01:04:27;;;;;;;15.23;6.17;;;;;6.00;101971.00;;;;11445186;22;20616;-75
2022/10/11 01:09:47;;;;;;;17.30;6.00;;;;;6.00;101959.00;;;;10435861;28;20285;-75
2022/10/11 01:15:24;;;;;;;14.37;5.80;;;;;6.00;101962.00;;;;10439670;28;20194;-75
2022/10/11 01:21:02;;;;;;;15.60;5.70;;;;;6.00;101964.00;;;;10437213;28;20186;-75
2022/10/11 01:26:45;;;;;;;10.50;5.83;;;;;5.90;101954.00;;;;10460869;28;20691;-75
2022/10/11 01:32:17;;;;;;;14.17;5.73;;;;;5.80;101955.00;;;;10458662;28;20193;-75
2022/10/11 01:37:29;;;;;;;15.53;5.83;;;;;5.80;101962.00;;;;10463118;28;20205;-75
2022/10/11 01:42:31;;;;;;;12.47;5.27;;;;;5.70;101958.00;;;;10434475;28;20513;-75
2022/10/11 01:48:09;;;;;;;13.30;5.70;;;;;5.70;101965.00;;;;10432420;28;20510;-75
2022/10/11 01:53:20;;;;;;;14.87;5.80;;;;;5.60;101968.00;;;;10425170;28;20213;-75
2022/10/11 01:58:52;;;;;;;11.07;5.30;;;;;5.60;101974.00;;;;10443688;28;20206;-75
2022/10/11 02:04:07;;;;;;;11.50;5.60;;;;;5.50;101973.00;;;;10434711;28;20761;-75
2022/10/11 02:09:28;;;;;;;9.27;5.07;;;;;5.40;101974.00;;;;10438337;28;20205;-75
2022/10/11 02:14:35;;;;;;;7.53;4.33;;;;;5.30;101976.00;;;;10446388;28;20206;-75
2022/10/11 02:19:41;;;;;;;13.70;4.53;;;;;5.30;101975.00;;;;10439371;28;20194;-75
2022/10/11 02:24:48;;;;;;;9.83;4.70;;;;;5.20;101977.00;;;;10451335;28;20222;-75
2022/10/11 02:30:08;;;;;;;9.83;5.03;;;;;5.10;101972.00;;;;10442270;28;20209;-75
2022/10/11 02:35:31;;;;;;;12.60;4.57;;;;;5.00;101978.00;;;;10440366;28;20198;-75
2022/10/11 02:41:18;;;;;;;9.37;4.53;;;;;5.00;101981.00;;;;10456907;28;20202;-75
2022/10/11 02:46:39;;;;;;;13.73;5.20;;;;;5.00;101980.00;;;;10444899;28;20217;-75
2022/10/11 02:51:59;;;;;;;15.10;4.97;;;;;4.90;101980.00;;;;10450952;28;20197;-75
2022/10/11 02:57:18;;;;;;;16.93;5.33;;;;;4.90;101987.00;;;;10443044;28;20277;-75
2022/10/11 03:02:38;;;;;;;12.73;5.57;;;;;4.90;101992.00;;;;10441059;28;20206;-75
2022/10/11 03:07:58;;;;;;;9.60;6.20;;;;;4.90;101986.00;;;;10449984;28;20739;-75
2022/10/11 03:13:17;;;;;;;15.63;6.20;;;;;4.90;101975.00;;;;10466468;28;20281;-75
2022/10/11 03:18:37;;;;;;;14.43;6.00;;;;;4.80;101982.00;;;;10426972;28;20198;-75
2022/10/11 03:23:57;;;;;;;14.80;5.13;;;;;4.80;101986.00;;;;10455186;28;20305;-75
2022/10/11 03:29:16;;;;;;;14.90;5.33;;;;;4.80;101989.00;;;;10468201;28;20194;-75
2022/10/11 03:34:36;;;;;;;10.57;5.20;;;;;4.80;101986.00;;;;10452436;28;20196;-75
2022/10/11 03:39:56;;;;;;;11.50;5.47;;;;;4.80;102003.00;;;;10461125;28;20195;-75
2022/10/11 03:45:15;;;;;;;10.03;5.60;;;;;4.70;102006.00;;;;10442953;28;20222;-75
2022/10/11 03:50:35;;;;;;;13.20;5.33;;;;;4.70;102013.00;;;;10440041;28;20205;-75
2022/10/11 03:55:55;;;;;;;11.97;5.70;;;;;4.60;102002.00;;;;10446540;28;20289;-75
2022/10/11 04:01:16;;;;;;;10.43;6.37;;;;;4.70;102015.00;;;;10450161;28;20292;-75
2022/10/11 04:06:36;;;;;;;12.43;5.33;;;;;4.60;102011.00;;;;10448706;28;20242;-75
2022/10/11 04:11:55;;;;;;;16.17;6.20;;;;;4.60;102017.00;;;;10460151;28;20225;-75
2022/10/11 04:17:15;;;;;;;17.07;5.87;;;;;4.60;102015.00;;;;10454811;28;20276;-75
2022/10/11 04:22:35;;;;;;;13.97;5.10;;;;;4.60;102020.00;;;;10421385;28;20245;-75
2022/10/11 04:27:54;;;;;;;10.87;5.03;;;;;4.50;102029.00;;;;10469155;28;20825;-75
2022/10/11 04:33:14;;;;;;;15.90;5.50;;;;;4.50;102031.00;;;;10444350;28;20201;-75
2022/10/11 04:38:15;;;;;;;13.17;4.73;;;;;4.40;102030.00;;;;10456392;28;20218;-75
2022/10/11 04:43:17;;;;;;;12.43;5.60;;;;;4.40;102031.00;;;;10475272;28;20209;-75
2022/10/11 04:48:18;;;;;;;15.53;5.73;;;;;4.30;102038.00;;;;10444009;28;20202;-75
2022/10/11 04:53:20;;;;;;;15.07;5.50;;;;;4.30;102038.00;;;;10438342;28;20935;-75
2022/10/11 04:58:21;;;;;;;14.97;5.80;;;;;4.30;102033.00;;;;10447112;28;20205;-75
2022/10/11 05:03:24;;;;;;;8.87;4.43;;;;;4.20;102038.00;;;;10467344;28;20293;-75
2022/10/11 05:08:44;;;;;;;19.70;7.70;;;;;4.20;102039.00;;;;10453017;28;20532;-75
2022/10/11 05:13:46;;;;;;;13.17;5.23;;;;;4.10;102038.00;;;;10466874;28;20577;-75
2022/10/11 05:18:47;;;;;;;11.40;5.00;;;;;4.20;102051.00;;;;10459826;28;20895;-75
2022/10/11 05:24:06;;;;;;;10.03;4.73;;;;;4.20;102058.00;;;;10463240;28;20217;-75
2022/10/11 05:29:26;;;;;;;12.53;6.47;;;;;4.10;102061.00;;;;10459535;28;20198;-75
2022/10/11 05:34:45;;;;;;;10.60;6.30;;;;;4.00;102061.00;;;;10444962;28;20201;-75
2022/10/11 05:39:47;;;;;;;13.13;6.90;;;;;4.00;102073.00;;;;10464197;28;20198;-74
2022/10/11 05:45:07;;;;;;;12.20;6.50;;;;;4.00;102071.00;;;;10428756;28;20742;-74
2022/10/11 05:50:27;;;;;;;14.03;6.73;;;;;3.90;102075.00;;;;10449020;28;20198;-75
2022/10/11 05:55:47;;;;;;;16.00;6.67;;;;;3.90;102080.00;;;;10450324;28;20246;-74
2022/10/11 06:01:15;;;;;;;13.80;6.93;;;;;3.90;102087.00;;;;10452843;28;20190;-74
2022/10/11 06:06:35;;;;;;;16.83;6.87;;;;;3.90;102090.00;;;;10441804;28;20222;-74
2022/10/11 06:11:54;;;;;;;14.87;6.90;;;;;4.00;102090.00;;;;10461918;28;20224;-74
2022/10/11 06:17:14;;;;;;;14.43;6.70;;;;;4.10;102096.00;;;;10462913;28;20202;-74
2022/10/11 06:22:33;;;;;;;13.90;5.80;;;;;4.20;102095.00;;;;10436459;28;20872;-74
2022/10/11 06:27:53;;;;;;;18.83;6.23;;;;;4.20;102097.00;;;;10463370;28;20212;-74
2022/10/11 06:33:12;;;;;;;13.83;6.20;;;;;4.40;102102.00;;;;10462207;28;20762;-76
2022/10/11 06:38:33;;;;;;;13.47;6.37;;;;;4.60;102097.00;;;;10450457;28;20669;-76
2022/10/11 06:43:53;;;;;;;14.10;6.27;;;;;4.80;102097.00;;;;10450346;28;20210;-76
2022/10/11 06:49:13;;;;;;;14.73;6.70;;;;;5.10;102111.00;;;;10468504;28;20202;-77
2022/10/11 06:54:32;;;;;;;23.50;7.50;;;;;5.40;102120.00;;;;10454021;28;20351;-77
2022/10/11 06:59:52;;;;;;;23.10;8.63;;;;;5.70;102114.00;;;;10463479;28;20202;-76
2022/10/11 07:05:11;;;;;;;23.90;8.57;;;;;6.00;102128.00;;;;10456391;28;20225;-76
2022/10/11 07:10:31;;;;;;;20.70;8.73;;;;;6.30;102136.00;;;;10460258;28;20698;-76
2022/10/11 07:15:51;;;;;;;22.17;9.40;;;;;6.60;102145.00;;;;10455610;28;20202;-76
2022/10/11 07:21:12;;;;;;;24.97;10.50;;;;;7.00;102148.00;;;;10445218;28;20206;-76
2022/10/11 07:26:32;;;;;;;24.87;9.67;;;;;7.30;102144.00;;;;10433388;28;20844;-77
2022/10/11 07:31:58;;;;;;;32.90;10.13;;;;;7.60;102151.00;;;;10458963;28;20219;-74
2022/10/11 07:37:17;;;;;;;17.33;10.53;;;;;7.80;102146.00;;;;10444762;28;20664;-77
2022/10/11 07:42:37;;;;;;;29.13;12.30;;;;;8.20;102151.00;;;;10437478;28;20197;-76
2022/10/11 07:47:39;;;;;;;30.83;15.40;;;;;8.50;102154.00;;;;10431031;28;20201;-77
2022/10/11 07:52:40;;;;;;;31.03;13.93;;;;;8.90;102158.00;;;;10461856;28;20651;-77
2022/10/11 07:58:00;;;;;;;29.17;13.93;;;;;9.30;102162.00;;;;10451543;28;20202;-74
2022/10/11 08:03:20;;;;;;;31.03;14.80;;;;;9.50;102169.00;;;;10470785;28;20639;-74
2022/10/11 08:08:39;;;;;;;31.53;16.17;;;;;9.80;102169.00;;;;10449883;28;20190;-74
2022/10/11 08:14:00;;;;;;;32.87;17.73;;;;;10.20;102171.00;;;;10452312;28;20190;-74
2022/10/11 08:19:20;;;;;;;25.10;15.17;;;;;10.90;102181.00;;;;10453531;28;20259;-76
2022/10/11 08:24:40;;;;;;;25.20;14.13;;;;;11.50;102183.00;;;;10460647;28;20221;-76
2022/10/11 08:29:59;;;;;;;20.13;10.87;;;;;12.00;102172.00;;;;10463376;28;20610;-76
2022/10/11 08:35:19;;;;;;;18.00;9.17;;;;;12.40;102186.00;;;;10435440;28;20616;-77
2022/10/11 08:40:47;;;;;;;19.63;8.23;;;;;12.80;102182.00;;;;10463020;28;20215;-75
2022/10/11 08:46:09;;;;;;;19.63;7.90;;;;;13.40;102182.00;;;;10458036;28;20340;-75
2022/10/11 08:51:34;;;;;;;14.83;5.90;;;;;13.90;102192.00;;;;10459171;28;20190;-75
2022/10/11 08:56:55;;;;;;;13.80;5.55;;;;;14.30;102191.00;;;;10445063;28;20198;-75
2022/10/11 09:02:13;;;;;;;14.00;5.05;;;;;14.80;102199.00;;;;10414664;28;20230;-75
2022/10/11 09:07:39;;;;;;;15.65;5.30;;;;;15.30;102197.00;;;;10469620;28;20582;-75
2022/10/11 09:13:10;;;;;;;14.82;5.57;;;;;15.60;102199.00;;;;10433280;28;20703;-75
2022/10/11 09:18:39;;;;;;;12.85;4.18;;;;;16.00;102205.00;;;;10462302;28;20768;-75
2022/10/11 09:24:03;;;;;;;13.20;4.25;;;;;16.20;102201.00;;;;10437610;28;20207;-76
2022/10/11 09:29:37;;;;;;;13.40;3.00;;;;;16.30;102205.00;;;;10452852;28;20197;-75
2022/10/11 09:34:39;;;;;;;21.40;3.38;;;;;16.20;102208.00;;;;10446071;28;20234;-76
2022/10/11 09:39:56;;;;;;;11.50;2.67;;;;;16.10;102210.00;;;;10468944;28;20198;-75
2022/10/11 09:44:59;;;;;;;13.23;3.00;;;;;16.10;102209.00;;;;10429474;28;20209;-75
2022/10/11 09:50:05;;;;;;;12.98;3.45;;;;;16.30;102205.00;;;;10458590;28;20193;-75
2022/10/11 09:55:06;;;;;;;17.98;3.92;;;;;16.30;102212.00;;;;10443102;28;20198;-75
2022/10/11 10:00:11;;;;;;;19.15;3.70;;;;;16.50;102204.00;;;;10450990;28;20198;-75
2022/10/11 10:05:34;;;;;;;11.27;2.78;;;;;16.70;102209.00;;;;10453269;28;20688;-75
2022/10/11 10:10:39;;;;;;;9.88;2.58;;;;;16.90;102206.00;;;;10435396;28;20901;-75
2022/10/11 10:15:45;;;;;;;10.35;2.75;;;;;17.20;102194.00;;;;10450907;28;20876;-75
2022/10/11 10:20:52;;;;;;;9.98;3.38;;;;;17.60;102193.00;;;;10454069;28;20202;-75
2022/10/11 10:26:10;;;;;;;11.48;2.38;;;;;18.00;102202.00;;;;10421244;28;20447;-75
2022/10/11 10:31:21;;;;;;;10.15;2.60;;;;;18.50;102193.00;;;;10443739;28;20210;-75
2022/10/11 10:36:28;;;;;;;9.10;2.70;;;;;18.80;102191.00;;;;10457531;28;20606;-75
2022/10/11 10:41:29;;;;;;;5.75;1.70;;;;;19.00;102193.00;;;;10452348;28;20201;-75
2022/10/11 10:46:50;;;;;;;9.65;2.53;;;;;19.00;102185.00;;;;10432301;28;20214;-75
2022/10/11 10:52:10;;;;;;;10.20;2.38;;;;;19.30;102188.00;;;;10462041;28;20222;-75
2022/10/11 10:57:47;;;;;;;8.07;2.42;;;;;19.40;102180.00;;;;10445556;28;20201;-75
2022/10/11 11:03:28;;;;;;;9.43;2.20;;;;;19.60;102191.00;;;;10443690;28;20344;-75
2022/10/11 11:08:32;;;;;;;7.53;2.17;;;;;19.70;102189.00;;;;10450078;28;20572;-74
2022/10/11 11:13:39;;;;;;;7.50;2.20;;;;;19.70;102181.00;;;;10462881;28;20210;-74
2022/10/11 11:18:46;;;;;;;101.72;12.27;;;;;19.70;102176.00;;;;10445804;28;20210;-74
2022/10/11 11:23:55;;;;;;;8.23;2.10;;;;;19.30;102181.00;;;;10471739;28;20749;-74
2022/10/11 11:29:08;;;;;;;9.52;2.45;;;;;19.30;102177.00;;;;10452973;28;20221;-73
2022/10/11 11:34:19;;;;;;;9.77;1.95;;;;;19.30;102163.00;;;;10422461;28;20202;-74
2022/10/11 11:39:33;;;;;;;13.13;2.05;;;;;19.30;102155.00;;;;10442083;28;20207;-74
2022/10/11 11:44:42;;;;;;;8.48;2.13;;;;;19.40;102150.00;;;;10460200;28;20844;-74
2022/10/11 11:49:48;;;;;;;9.65;2.20;;;;;19.50;102147.00;;;;10465030;28;20215;-74
2022/10/11 11:55:00;;;;;;;12.88;2.53;;;;;19.70;102142.00;;;;10468867;28;20214;-74
2022/10/11 12:00:14;;;;;;;9.60;2.00;;;;;19.20;102140.00;;;;10423156;28;20202;-74
2022/10/11 12:05:20;;;;;;;7.93;2.55;;;;;19.10;102138.00;;;;10457622;28;20229;-74
2022/10/11 12:10:53;;;;;;;7.15;1.80;;;;;19.60;102127.00;;;;10444623;28;20216;-74
2022/10/11 12:15:59;;;;;;;6.50;1.95;;;;;19.90;102121.00;;;;10412976;28;20560;-74
2022/10/11 12:21:21;;;;;;;7.25;1.88;;;;;20.30;102114.00;;;;10469173;28;20190;-74
2022/10/11 12:26:28;;;;;;;4.63;1.95;;;;;20.40;102113.00;;;;10439776;28;20293;-75
2022/10/11 12:31:34;;;;;;;8.25;2.70;;;;;20.30;102102.00;;;;10437234;28;20209;-74
2022/10/11 12:36:49;;;;;;;51.70;8.20;;;;;20.40;102097.00;;;;10453218;28;20256;-74
2022/10/11 12:42:04;;;;;;;9.18;1.95;;;;;20.30;102093.00;;;;10420306;28;20206;-74
2022/10/11 12:47:31;;;;;;;6.40;1.95;;;;;20.30;102090.00;;;;10452524;28;20217;-74
2022/10/11 12:52:39;;;;;;;8.55;2.20;;;;;20.20;102094.00;;;;10433452;28;20252;-74
2022/10/11 12:58:18;;;;;;;10.70;2.08;;;;;20.10;102087.00;;;;10421629;28;20198;-74
2022/10/11 13:03:38;;;;;;;14.65;3.03;;;;;20.10;102084.00;;;;10449431;28;20214;-74
2022/10/11 13:08:43;;;;;;;13.55;2.47;;;;;19.20;102091.00;;;;10444025;28;20668;-74
2022/10/11 13:13:51;;;;;;;11.75;2.90;;;;;18.20;102088.00;;;;10444733;28;20199;-74
2022/10/11 13:18:58;;;;;;;17.80;3.05;;;;;18.50;102085.00;;;;10444952;28;20255;-74
2022/10/11 13:24:18;;;;;;;6.88;2.05;;;;;18.40;102080.00;;;;10436274;28;20221;-74
2022/10/11 13:29:25;;;;;;;9.07;2.20;;;;;18.50;102071.00;;;;10458951;28;20209;-73
2022/10/11 13:34:27;;;;;;;9.63;2.13;;;;;18.60;102063.00;;;;10446866;28;20195;-74
2022/10/11 13:39:37;;;;;;;6.80;1.55;;;;;18.70;102066.00;;;;10423688;28;20209;-74
2022/10/11 13:44:40;;;;;;;5.13;1.98;;;;;18.50;102055.00;;;;10441568;28;20222;-74
2022/10/11 13:49:49;;;;;;;7.97;2.00;;;;;18.20;102064.00;;;;10432245;28;20210;-74
2022/10/11 13:55:02;;;;;;;11.02;2.22;;;;;17.40;102050.00;;;;10448948;28;20201;-74
2022/10/11 14:00:14;;;;;;;6.78;1.33;;;;;18.40;102048.00;;;;10461719;28;20198;-74
2022/10/11 14:05:38;;;;;;;4.75;2.00;;;;;17.50;102059.00;;;;10447570;28;20271;-74
2022/10/11 14:10:44;;;;;;;6.55;2.00;;;;;17.10;102052.00;;;;10434919;28;20212;-74
2022/10/11 14:15:56;;;;;;;9.30;2.10;;;;;16.80;102054.00;;;;10420111;28;20210;-74
2022/10/11 14:21:18;;;;;;;7.70;1.70;;;;;17.10;102041.00;;;;10430305;28;20205;-74
2022/10/11 14:26:21;;;;;;;7.13;1.75;;;;;17.40;102031.00;;;;10425943;28;20224;-74
2022/10/11 14:31:22;;;;;;;8.45;2.40;;;;;17.80;102011.00;;;;10403517;28;20195;-74
2022/10/11 14:36:24;;;;;;;7.45;1.90;;;;;18.20;102015.00;;;;10428453;28;20236;-74
2022/10/11 14:41:26;;;;;;;6.47;2.03;;;;;16.90;102027.00;;;;10435879;28;20702;-74
2022/10/11 14:46:27;;;;;;;9.10;1.75;;;;;17.10;102013.00;;;;10443019;28;20251;-74
2022/10/11 14:51:33;;;;;;;7.25;1.80;;;;;17.00;102009.00;;;;10456338;28;20198;-73
2022/10/11 14:56:34;;;;;;;8.30;2.00;;;;;16.60;102020.00;;;;10439234;28;20288;-73
2022/10/11 15:01:35;;;;;;;9.40;1.77;;;;;16.10;102009.00;;;;10444660;28;20202;-73
2022/10/11 15:06:39;;;;;;;7.53;1.88;;;;;15.70;102014.00;;;;10450973;28;20592;-74
2022/10/11 15:11:40;;;;;;;8.10;1.85;;;;;15.50;102000.00;;;;10447386;28;20925;-73
2022/10/11 15:16:42;;;;;;;7.32;1.67;;;;;15.20;102002.00;;;;10452995;28;20821;-74
2022/10/11 15:21:44;;;;;;;8.23;2.17;;;;;15.00;101995.00;;;;10452948;28;20206;-73
2022/10/11 15:26:46;;;;;;;5.85;2.35;;;;;14.90;101997.00;;;;10451480;28;20222;-73
2022/10/11 15:31:48;;;;;;;8.80;1.97;;;;;14.80;101992.00;;;;10422875;28;20199;-73
2022/10/11 15:36:50;;;;;;;9.37;2.30;;;;;14.70;101990.00;;;;10441861;28;20201;-74
2022/10/11 15:41:51;;;;;;;7.03;1.60;;;;;14.60;101992.00;;;;10447363;28;20198;-74
2022/10/11 15:46:52;;;;;;;8.40;2.00;;;;;14.40;101987.00;;;;10457080;28;20576;-73
2022/10/11 15:51:54;;;;;;;7.53;2.30;;;;;14.30;101992.00;;;;10461819;28;20281;-74
2022/10/11 15:56:55;;;;;;;9.67;2.17;;;;;14.20;101979.00;;;;10464626;28;20264;-74
2022/10/11 16:01:56;;;;;;;9.30;2.10;;;;;14.10;101988.00;;;;10457134;28;20225;-74
2022/10/11 16:06:57;;;;;;;11.27;3.00;;;;;14.00;101992.00;;;;10472679;28;20221;-74
2022/10/11 16:11:58;;;;;;;14.17;2.40;;;;;13.90;101995.00;;;;10435318;28;20202;-74
2022/10/11 16:17:02;;;;;;;9.40;2.00;;;;;13.80;101986.00;;;;10458189;28;20716;-73
2022/10/11 16:22:03;;;;;;;6.43;1.77;;;;;13.60;101986.00;;;;10439412;28;20680;-74
2022/10/11 16:27:04;;;;;;;10.67;2.37;;;;;13.50;101990.00;;;;10445260;28;20214;-73
2022/10/11 16:32:05;;;;;;;8.73;2.03;;;;;13.30;101992.00;;;;10421690;28;20787;-74
2022/10/11 16:37:06;;;;;;;7.97;1.63;;;;;13.10;101997.00;;;;10442524;28;20201;-73
2022/10/11 16:42:08;;;;;;;9.17;2.17;;;;;12.90;101993.00;;;;10422212;28;20203;-74
2022/10/11 16:47:09;;;;;;;10.93;2.23;;;;;12.60;101991.00;;;;10453564;28;20533;-74
2022/10/11 16:52:12;;;;;;;5.20;2.00;;;;;12.30;101994.00;;;;10455416;28;20191;-74
2022/10/11 16:57:16;;;;;;;7.53;2.50;;;;;12.00;101997.00;;;;10446458;28;20229;-73
2022/10/11 17:02:21;;;;;;;16.87;2.60;;;;;11.70;102000.00;;;;10446875;28;20255;-74
2022/10/11 17:07:22;;;;;;;6.43;2.00;;;;;11.50;102000.00;;;;10434917;28;20222;-74
2022/10/11 17:12:23;;;;;;;13.63;2.70;;;;;11.30;102000.00;;;;10446428;28;20210;-74
2022/10/11 17:17:25;;;;;;;10.43;2.10;;;;;11.00;101995.00;;;;10430705;28;20199;-74
2022/10/11 17:22:27;;;;;;;5.53;1.80;;;;;10.80;102005.00;;;;10467863;28;20661;-74
2022/10/11 17:27:28;;;;;;;15.07;2.30;;;;;10.60;102009.00;;;;10417920;28;20935;-74
2022/10/11 17:32:29;;;;;;;8.23;2.53;;;;;10.40;102006.00;;;;10449964;28;20229;-76
2022/10/11 17:37:30;;;;;;;10.10;2.40;;;;;10.30;102014.00;;;;10469166;28;20219;-76
2022/10/11 17:42:31;;;;;;;8.43;2.13;;;;;10.20;102015.00;;;;10467701;28;20206;-74
2022/10/11 17:47:33;;;;;;;12.50;2.70;;;;;10.00;102009.00;;;;10420699;28;20209;-74
2022/10/11 17:52:34;;;;;;;9.20;2.43;;;;;9.90;102010.00;;;;10444635;28;20826;-74
2022/10/11 17:57:35;;;;;;;6.10;2.23;;;;;9.80;102002.00;;;;10466593;28;20240;-74
2022/10/11 18:02:39;;;;;;;12.43;2.77;;;;;9.70;102005.00;;;;10429419;28;20242;-74
2022/10/11 18:07:40;;;;;;;12.80;3.60;;;;;9.60;102011.00;;;;10461431;28;20226;-74
2022/10/11 18:12:41;;;;;;;14.03;3.83;;;;;9.50;102011.00;;;;10423615;28;20202;-74
2022/10/11 18:17:42;;;;;;;7.83;3.00;;;;;9.40;102009.00;;;;10429086;28;20656;-74
2022/10/11 18:22:43;;;;;;;10.27;2.80;;;;;9.30;102000.00;;;;10433985;28;20205;-74
2022/10/11 18:27:45;;;;;;;10.87;2.90;;;;;9.20;101999.00;;;;10430316;28;20284;-74
2022/10/11 18:32:46;;;;;;;7.67;2.20;;;;;9.00;101998.00;;;;10432096;28;20190;-74
2022/10/11 18:37:49;;;;;;;12.13;2.87;;;;;8.90;101993.00;;;;10396920;28;20859;-74
2022/10/11 18:42:51;;;;;;;17.20;4.30;;;;;8.80;101994.00;;;;10443861;28;20197;-74
2022/10/11 18:47:52;;;;;;;9.90;3.73;;;;;8.70;101988.00;;;;10452810;28;20232;-74
2022/10/11 18:52:53;;;;;;;10.23;3.87;;;;;8.60;101983.00;;;;10424988;28;20525;-74
2022/10/11 18:57:55;;;;;;;12.77;3.63;;;;;8.50;101984.00;;;;10444126;28;20579;-74
2022/10/11 19:02:56;;;;;;;13.93;4.23;;;;;8.40;101983.00;;;;10465005;28;20229;-76
2022/10/11 19:07:57;;;;;;;9.30;3.83;;;;;8.30;101982.00;;;;10431560;28;20692;-74
2022/10/11 19:12:58;;;;;;;14.10;5.90;;;;;8.20;101989.00;;;;10453080;28;20736;-74
2022/10/11 19:17:59;;;;;;;15.87;5.63;;;;;8.10;101991.00;;;;10443590;28;20641;-76
2022/10/11 19:23:00;;;;;;;9.53;5.27;;;;;8.00;102001.00;;;;10470171;28;20212;-76
2022/10/11 19:28:02;;;;;;;14.87;6.23;;;;;7.90;101994.00;;;;10463598;28;20718;-74
2022/10/11 19:33:04;;;;;;;16.50;7.00;;;;;7.80;101996.00;;;;10479279;28;20760;-74
2022/10/11 19:38:05;;;;;;;54.27;26.20;;;;;7.70;102004.00;;;;10450357;28;20198;-74
2022/10/11 19:43:06;;;;;;;28.43;14.50;;;;;7.70;101999.00;;;;10448117;28;20194;-74
2022/10/11 19:48:07;;;;;;;22.80;9.90;;;;;7.60;102000.00;;;;10451070;28;20190;-76
2022/10/11 19:53:08;;;;;;;19.23;9.17;;;;;7.60;102000.00;;;;10417732;28;20620;-76
2022/10/11 19:58:10;;;;;;;17.70;9.20;;;;;7.50;102000.00;;;;10460220;28;20681;-76
2022/10/11 20:03:11;;;;;;;16.23;8.90;;;;;7.40;101998.00;;;;10441804;28;20206;-76
2022/10/11 20:08:13;;;;;;;14.63;8.27;;;;;7.30;101995.00;;;;10445533;28;20682;-76
2022/10/11 20:13:14;;;;;;;13.90;7.63;;;;;7.30;101990.00;;;;10432312;28;20198;-76
2022/10/11 20:18:16;;;;;;;14.90;7.20;;;;;7.20;101989.00;;;;10476314;28;20672;-76
2022/10/11 20:23:17;;;;;;;15.13;6.77;;;;;7.20;101994.00;;;;10454290;28;20226;-75
2022/10/11 20:28:19;;;;;;;12.43;6.47;;;;;7.10;102002.00;;;;10442099;28;20194;-75
2022/10/11 20:33:20;;;;;;;13.73;7.00;;;;;7.00;102013.00;;;;10458030;28;20202;-76
2022/10/11 20:38:22;;;;;;;15.37;7.33;;;;;6.90;102001.00;;;;10438915;28;20202;-75
2022/10/11 20:43:23;;;;;;;17.97;7.27;;;;;6.80;102004.00;;;;10447987;28;20209;-75
2022/10/11 20:48:24;;;;;;;14.00;6.80;;;;;6.70;101996.00;;;;10442266;28;20782;-75
2022/10/11 20:53:27;;;;;;;17.43;7.90;;;;;6.60;102005.00;;;;10447968;28;20800;-75
2022/10/11 20:58:28;;;;;;;17.97;7.67;;;;;6.60;102003.00;;;;10429947;28;20202;-75
2022/10/11 21:03:29;;;;;;;12.47;6.47;;;;;6.40;101999.00;;;;10422494;28;20275;-75
2022/10/11 21:08:31;;;;;;;15.33;7.13;;;;;6.40;102008.00;;;;10461317;28;20260;-75
2022/10/11 21:13:33;;;;;;;19.43;7.77;;;;;6.30;102007.00;;;;10443012;28;20194;-75
2022/10/11 21:18:34;;;;;;;17.27;7.10;;;;;6.30;101997.00;;;;10445927;28;20210;-75
2022/10/11 21:23:35;;;;;;;11.60;6.30;;;;;6.20;102003.00;;;;10429915;28;20253;-75
2022/10/11 21:28:37;;;;;;;15.20;8.60;;;;;6.20;101990.00;;;;10445426;28;20844;-75
2022/10/11 21:33:39;;;;;;;14.80;7.87;;;;;6.10;101981.00;;;;10433257;28;20234;-75
2022/10/11 21:38:41;;;;;;;15.00;7.63;;;;;6.10;101991.00;;;;10461246;28;20224;-75
2022/10/11 21:43:43;;;;;;;14.57;7.80;;;;;6.00;101978.00;;;;10433988;28;20242;-75
2022/10/11 21:48:44;;;;;;;13.20;6.93;;;;;6.00;101992.00;;;;10452113;28;20221;-75
2022/10/11 21:53:45;;;;;;;14.43;7.83;;;;;5.90;101988.00;;;;10444731;28;20202;-75
2022/10/11 21:58:47;;;;;;;14.20;7.87;;;;;5.80;101981.00;;;;10466784;28;20193;-75
2022/10/11 22:03:51;;;;;;;19.73;9.83;;;;;5.70;101995.00;;;;10448996;28;20276;-75
2022/10/11 22:08:52;;;;;;;20.93;10.37;;;;;5.60;101987.00;;;;10449095;28;20244;-75
2022/10/11 22:13:53;;;;;;;23.40;12.53;;;;;5.60;101979.00;;;;10428983;28;20556;-75
2022/10/11 22:18:54;;;;;;;25.63;11.83;;;;;5.50;101978.00;;;;10452307;28;20210;-75
2022/10/11 22:23:55;;;;;;;23.37;10.73;;;;;5.50;101963.00;;;;10440316;28;20216;-75
2022/10/11 22:28:58;;;;;;;22.53;11.13;;;;;5.40;101957.00;;;;10453838;28;20224;-75
2022/10/11 22:33:59;;;;;;;20.53;12.00;;;;;5.40;101964.00;;;;10448421;28;20193;-75
2022/10/11 22:39:06;;;;;;;20.80;11.27;;;;;5.30;101964.00;;;;10438318;28;20849;-75
2022/10/11 22:44:07;;;;;;;22.80;11.37;;;;;5.30;101964.00;;;;10443169;28;20814;-75
2022/10/11 22:49:08;;;;;;;21.83;11.73;;;;;5.20;101951.00;;;;10427765;28;20201;-75
2022/10/11 22:54:10;;;;;;;18.43;9.37;;;;;5.10;101963.00;;;;10461673;28;20197;-75
2022/10/11 22:59:11;;;;;;;17.80;10.17;;;;;5.10;101956.00;;;;10467424;28;20205;-75
2022/10/11 23:04:15;;;;;;;17.03;10.27;;;;;5.00;101952.00;;;;10455611;28;20218;-75
2022/10/11 23:09:16;;;;;;;23.83;9.93;;;;;4.90;101953.00;;;;10442033;28;20277;-75
2022/10/11 23:14:17;;;;;;;17.27;10.53;;;;;4.90;101956.00;;;;10442892;28;20591;-75
2022/10/11 23:19:18;;;;;;;19.60;9.80;;;;;4.80;101947.00;;;;10434728;28;20198;-75
2022/10/11 23:24:19;;;;;;;20.57;9.53;;;;;4.80;101944.00;;;;10442682;28;20336;-75
2022/10/11 23:29:21;;;;;;;20.60;11.07;;;;;4.70;101936.00;;;;10411323;28;20205;-75
2022/10/11 23:34:22;;;;;;;18.17;11.20;;;;;4.70;101931.00;;;;10455736;28;20191;-75
2022/10/11 23:39:23;;;;;;;20.10;11.80;;;;;4.60;101918.00;;;;10458900;28;20209;-75
2022/10/11 23:44:24;;;;;;;27.87;15.10;;;;;4.60;101915.00;;;;10438441;28;20222;-75
2022/10/11 23:49:26;;;;;;;22.13;13.50;;;;;4.50;101930.00;;;;10453819;28;20190;-75
2022/10/11 23:54:27;;;;;;;22.63;12.67;;;;;4.40;101937.00;;;;10450689;28;20223;-75
2022/10/11 23:59:28;;;;;;;25.13;12.67;;;;;4.40;101926.00;;;;10446578;28;20571;-75
